sensor_id;sensor_type;location;lat;lon;timestamp;P1;durP1;ratioP1;P2;durP2;ratioP2
45033;SDS011;30771;47.988;-4.186;2022-11-20T07:01:31;45.72;;;5.55;;
45033;SDS011;30771;47.988;-4.186;2022-11-20T07:03:56;58.25;;;7.22;;
45033;SDS011;30771;47.988;-4.186;2022-11-20T07:06:22;50.67;;;6.70;;
45033;SDS011;30771;47.988;-4.186;2022-11-20T07:08:47;54.20;;;6.25;;
45033;SDS011;30771;47.988;-4.186;2022-11-20T07:11:15;49.75;;;6.63;;
45033;SDS011;30771;47.988;-4.186;2022-11-20T07:13:41;56.03;;;6.25;;
45033;SDS011;30771;47.988;-4.186;2022-11-20T07:16:07;45.15;;;6.70;;
45033;SDS011;30771;47.988;-4.186;2022-11-20T07:18:33;55.60;;;7.15;;
45033;SDS011;30771;47.988;-4.186;2022-11-20T07:21:06;51.42;;;6.75;;
45033;SDS011;30771;47.988;-4.186;2022-11-20T07:23:32;52.53;;;7.18;;
45033;SDS011;30771;47.988;-4.186;2022-11-20T07:25:58;63.10;;;8.15;;
45033;SDS011;30771;47.988;-4.186;2022-11-20T07:28:23;57.28;;;7.07;;
45033;SDS011;30771;47.988;-4.186;2022-11-20T07:30:51;51.72;;;6.03;;
45033;SDS011;30771;47.988;-4.186;2022-11-20T07:33:18;61.83;;;7.75;;
45033;SDS011;30771;47.988;-4.186;2022-11-20T07:35:44;51.15;;;6.45;;
45033;SDS011;30771;47.988;-4.186;2022-11-20T07:38:10;54.78;;;7.20;;
45033;SDS011;30771;47.988;-4.186;2022-11-20T07:40:35;69.13;;;8.15;;
45033;SDS011;30771;47.988;-4.186;2022-11-20T07:43:01;50.50;;;7.13;;
45033;SDS011;30771;47.988;-4.186;2022-11-20T07:45:26;56.50;;;7.00;;
45033;SDS011;30771;47.988;-4.186;2022-11-20T07:47:51;58.75;;;7.07;;
45033;SDS011;30771;47.988;-4.186;2022-11-20T07:50:17;46.97;;;7.88;;
45033;SDS011;30771;47.988;-4.186;2022-11-20T07:52:43;53.20;;;9.43;;
45033;SDS011;30771;47.988;-4.186;2022-11-20T07:55:09;59.88;;;7.28;;
45033;SDS011;30771;47.988;-4.186;2022-11-20T07:57:35;62.17;;;7.63;;
45033;SDS011;30771;47.988;-4.186;2022-11-20T08:00:01;59.30;;;6.95;;
45033;SDS011;30771;47.988;-4.186;2022-11-20T08:02:27;43.70;;;6.47;;
45033;SDS011;30771;47.988;-4.186;2022-11-20T08:04:52;52.65;;;7.43;;
45033;SDS011;30771;47.988;-4.186;2022-11-20T08:07:18;60.83;;;7.78;;
45033;SDS011;30771;47.988;-4.186;2022-11-20T08:09:43;53.65;;;7.00;;
45033;SDS011;30771;47.988;-4.186;2022-11-20T08:12:09;51.50;;;8.25;;
45033;SDS011;30771;47.988;-4.186;2022-11-20T08:14:43;61.97;;;7.20;;
45033;SDS011;30771;47.988;-4.186;2022-11-20T08:17:08;49.58;;;7.18;;
45033;SDS011;30771;47.988;-4.186;2022-11-20T08:19:33;61.97;;;7.28;;
45033;SDS011;30771;47.988;-4.186;2022-11-20T08:21:59;45.15;;;7.30;;
45033;SDS011;30771;47.988;-4.186;2022-11-20T08:24:24;57.08;;;6.60;;
45033;SDS011;30771;47.988;-4.186;2022-11-20T08:26:49;52.78;;;8.00;;
45033;SDS011;30771;47.988;-4.186;2022-11-20T08:29:15;50.78;;;9.55;;
45033;SDS011;30771;47.988;-4.186;2022-11-20T08:31:40;55.55;;;7.70;;
45033;SDS011;30771;47.988;-4.186;2022-11-20T08:34:05;49.78;;;7.20;;
45033;SDS011;30771;47.988;-4.186;2022-11-20T08:36:32;61.15;;;7.35;;
45033;SDS011;30771;47.988;-4.186;2022-11-20T08:38:58;47.95;;;6.65;;
45033;SDS011;30771;47.988;-4.186;2022-11-20T08:41:23;53.25;;;7.53;;
45033;SDS011;30771;47.988;-4.186;2022-11-20T08:43:49;51.80;;;12.05;;
45033;SDS011;30771;47.988;-4.186;2022-11-20T08:46:15;56.75;;;11.35;;
45033;SDS011;30771;47.988;-4.186;2022-11-20T08:48:41;56.25;;;9.45;;
45033;SDS011;30771;47.988;-4.186;2022-11-20T08:51:06;54.65;;;7.40;;
45033;SDS011;30771;47.988;-4.186;2022-11-20T08:53:32;55.60;;;7.18;;
45033;SDS011;30771;47.988;-4.186;2022-11-20T08:55:57;50.40;;;6.43;;
45033;SDS011;30771;47.988;-4.186;2022-11-20T08:58:23;65.82;;;8.43;;
45033;SDS011;30771;47.988;-4.186;2022-11-20T09:00:48;61.08;;;7.72;;
45033;SDS011;30771;47.988;-4.186;2022-11-20T09:03:13;57.35;;;7.25;;
45033;SDS011;30771;47.988;-4.186;2022-11-20T09:05:40;57.45;;;6.65;;
45033;SDS011;30771;47.988;-4.186;2022-11-20T09:08:05;41.30;;;5.43;;
45033;SDS011;30771;47.988;-4.186;2022-11-20T09:10:31;41.83;;;6.05;;
45033;SDS011;30771;47.988;-4.186;2022-11-20T09:12:56;40.47;;;5.60;;
45033;SDS011;30771;47.988;-4.186;2022-11-20T09:15:22;44.38;;;5.43;;
45033;SDS011;30771;47.988;-4.186;2022-11-20T09:17:52;35.88;;;5.38;;
45033;SDS011;30771;47.988;-4.186;2022-11-20T09:20:18;30.27;;;4.25;;
45033;SDS011;30771;47.988;-4.186;2022-11-20T09:22:44;36.47;;;4.57;;
45033;SDS011;30771;47.988;-4.186;2022-11-20T09:25:09;34.22;;;4.97;;
45033;SDS011;30771;47.988;-4.186;2022-11-20T09:27:35;37.90;;;4.65;;
45033;SDS011;30771;47.988;-4.186;2022-11-20T09:30:00;27.55;;;4.00;;
45033;SDS011;30771;47.988;-4.186;2022-11-20T09:32:26;34.92;;;4.03;;
45033;SDS011;30771;47.988;-4.186;2022-11-20T09:34:51;31.52;;;4.45;;
45033;SDS011;30771;47.988;-4.186;2022-11-20T09:37:16;32.80;;;5.47;;
45033;SDS011;30771;47.988;-4.186;2022-11-20T09:39:41;30.33;;;4.47;;
45033;SDS011;30771;47.988;-4.186;2022-11-20T09:42:25;32.33;;;4.70;;
45033;SDS011;30771;47.988;-4.186;2022-11-20T09:45:05;37.70;;;5.15;;
45033;SDS011;30771;47.988;-4.186;2022-11-20T09:50:48;34.13;;;6.07;;
45033;SDS011;30771;47.988;-4.186;2022-11-20T09:53:22;33.30;;;5.78;;
45033;SDS011;30771;47.988;-4.186;2022-11-20T09:56:01;32.67;;;4.88;;
45033;SDS011;30771;47.988;-4.186;2022-11-20T10:00:56;42.50;;;5.53;;
45033;SDS011;30771;47.988;-4.186;2022-11-20T10:03:39;43.42;;;5.60;;
45033;SDS011;30771;47.988;-4.186;2022-11-20T10:06:08;36.75;;;5.15;;
45033;SDS011;30771;47.988;-4.186;2022-11-20T10:08:42;42.83;;;5.90;;
45033;SDS011;30771;47.988;-4.186;2022-11-20T10:11:21;40.58;;;5.18;;
45033;SDS011;30771;47.988;-4.186;2022-11-20T10:13:52;35.95;;;6.03;;
45033;SDS011;30771;47.988;-4.186;2022-11-20T10:19:51;37.65;;;5.38;;
45033;SDS011;30771;47.988;-4.186;2022-11-20T10:30:28;42.33;;;6.15;;
45033;SDS011;30771;47.988;-4.186;2022-11-20T10:33:05;38.88;;;5.97;;
45033;SDS011;30771;47.988;-4.186;2022-11-20T10:35:40;42.92;;;9.90;;
45033;SDS011;30771;47.988;-4.186;2022-11-20T10:41:15;35.55;;;5.68;;
45033;SDS011;30771;47.988;-4.186;2022-11-20T10:43:45;38.55;;;5.25;;
45033;SDS011;30771;47.988;-4.186;2022-11-20T10:46:21;33.08;;;5.50;;
45033;SDS011;30771;47.988;-4.186;2022-11-20T10:48:47;35.78;;;4.80;;
45033;SDS011;30771;47.988;-4.186;2022-11-20T10:57:02;39.95;;;6.63;;
45033;SDS011;30771;47.988;-4.186;2022-11-20T10:59:32;42.00;;;5.28;;
45033;SDS011;30771;47.988;-4.186;2022-11-20T11:02:00;36.80;;;5.65;;
45033;SDS011;30771;47.988;-4.186;2022-11-20T11:07:00;34.92;;;5.47;;
45033;SDS011;30771;47.988;-4.186;2022-11-20T11:09:35;31.02;;;4.07;;
45033;SDS011;30771;47.988;-4.186;2022-11-20T11:12:06;27.63;;;4.45;;
45033;SDS011;30771;47.988;-4.186;2022-11-20T11:14:41;32.42;;;5.35;;
45033;SDS011;30771;47.988;-4.186;2022-11-20T11:17:25;40.78;;;4.82;;
45033;SDS011;30771;47.988;-4.186;2022-11-20T11:22:26;35.83;;;4.57;;
45033;SDS011;30771;47.988;-4.186;2022-11-20T11:24:54;22.63;;;4.47;;
45033;SDS011;30771;47.988;-4.186;2022-11-20T11:27:19;37.65;;;5.05;;
45033;SDS011;30771;47.988;-4.186;2022-11-20T11:29:45;27.38;;;4.50;;
45033;SDS011;30771;47.988;-4.186;2022-11-20T11:32:12;38.70;;;4.10;;
45033;SDS011;30771;47.988;-4.186;2022-11-20T11:34:44;25.67;;;3.80;;
45033;SDS011;30771;47.988;-4.186;2022-11-20T11:37:15;30.98;;;4.15;;
45033;SDS011;30771;47.988;-4.186;2022-11-20T11:39:43;25.92;;;3.65;;
45033;SDS011;30771;47.988;-4.186;2022-11-20T11:42:12;27.63;;;3.83;;
45033;SDS011;30771;47.988;-4.186;2022-11-20T11:44:46;33.85;;;4.10;;
45033;SDS011;30771;47.988;-4.186;2022-11-20T11:47:26;26.20;;;5.15;;
45033;SDS011;30771;47.988;-4.186;2022-11-20T11:52:45;28.80;;;4.28;;
45033;SDS011;30771;47.988;-4.186;2022-11-20T11:55:22;24.30;;;3.35;;
45033;SDS011;30771;47.988;-4.186;2022-11-20T11:58:02;19.42;;;3.38;;
45033;SDS011;30771;47.988;-4.186;2022-11-20T12:00:34;22.50;;;3.17;;
45033;SDS011;30771;47.988;-4.186;2022-11-20T12:03:06;29.75;;;4.35;;
45033;SDS011;30771;47.988;-4.186;2022-11-20T12:05:42;25.67;;;3.70;;
45033;SDS011;30771;47.988;-4.186;2022-11-20T12:16:02;24.13;;;3.35;;
45033;SDS011;30771;47.988;-4.186;2022-11-20T12:18:29;25.08;;;4.30;;
45033;SDS011;30771;47.988;-4.186;2022-11-20T12:24:29;31.52;;;7.32;;
45033;SDS011;30771;47.988;-4.186;2022-11-20T12:37:33;23.23;;;3.53;;
45033;SDS011;30771;47.988;-4.186;2022-11-20T12:40:27;25.05;;;3.60;;
45033;SDS011;30771;47.988;-4.186;2022-11-20T12:56:57;25.30;;;3.92;;
45033;SDS011;30771;47.988;-4.186;2022-11-20T13:19:20;23.63;;;4.20;;
45033;SDS011;30771;47.988;-4.186;2022-11-20T13:25:10;27.42;;;5.22;;
45033;SDS011;30771;47.988;-4.186;2022-11-20T13:27:47;32.25;;;4.63;;
45033;SDS011;30771;47.988;-4.186;2022-11-20T13:30:16;24.08;;;3.85;;
45033;SDS011;30771;47.988;-4.186;2022-11-20T13:35:59;30.55;;;5.22;;
45033;SDS011;30771;47.988;-4.186;2022-11-20T13:38:39;23.42;;;4.65;;
45033;SDS011;30771;47.988;-4.186;2022-11-20T13:41:22;35.05;;;5.57;;
45033;SDS011;30771;47.988;-4.186;2022-11-20T13:43:59;34.42;;;4.28;;
45033;SDS011;30771;47.988;-4.186;2022-11-20T13:46:41;28.02;;;4.53;;
45033;SDS011;30771;47.988;-4.186;2022-11-20T13:49:15;29.52;;;4.50;;
45033;SDS011;30771;47.988;-4.186;2022-11-20T13:51:49;32.08;;;4.13;;
45033;SDS011;30771;47.988;-4.186;2022-11-20T13:54:30;23.33;;;3.63;;
45033;SDS011;30771;47.988;-4.186;2022-11-20T13:57:20;32.05;;;5.53;;
45033;SDS011;30771;47.988;-4.186;2022-11-20T14:02:41;39.42;;;8.25;;
45033;SDS011;30771;47.988;-4.186;2022-11-20T14:05:17;27.77;;;4.13;;
45033;SDS011;30771;47.988;-4.186;2022-11-20T14:07:46;23.83;;;4.15;;
45033;SDS011;30771;47.988;-4.186;2022-11-20T14:10:22;27.08;;;4.50;;
45033;SDS011;30771;47.988;-4.186;2022-11-20T14:12:54;30.35;;;3.95;;
45033;SDS011;30771;47.988;-4.186;2022-11-20T14:15:56;38.88;;;5.72;;
45033;SDS011;30771;47.988;-4.186;2022-11-20T14:18:15;30.73;;;4.22;;
45033;SDS011;30771;47.988;-4.186;2022-11-20T14:20:45;32.35;;;4.55;;
45033;SDS011;30771;47.988;-4.186;2022-11-20T14:26:15;33.00;;;4.28;;
45033;SDS011;30771;47.988;-4.186;2022-11-20T14:28:47;27.95;;;3.88;;
45033;SDS011;30771;47.988;-4.186;2022-11-20T14:31:17;24.25;;;3.88;;
45033;SDS011;30771;47.988;-4.186;2022-11-20T14:33:47;25.48;;;4.20;;
45033;SDS011;30771;47.988;-4.186;2022-11-20T14:36:19;30.25;;;5.25;;
45033;SDS011;30771;47.988;-4.186;2022-11-20T14:38:46;27.40;;;4.35;;
45033;SDS011;30771;47.988;-4.186;2022-11-20T14:41:19;32.28;;;4.18;;
45033;SDS011;30771;47.988;-4.186;2022-11-20T14:44:19;31.15;;;4.63;;
45033;SDS011;30771;47.988;-4.186;2022-11-20T14:46:37;30.20;;;4.60;;
45033;SDS011;30771;47.988;-4.186;2022-11-20T14:49:02;36.55;;;6.03;;
45033;SDS011;30771;47.988;-4.186;2022-11-20T14:51:33;23.05;;;4.85;;
45033;SDS011;30771;47.988;-4.186;2022-11-20T14:54:09;28.80;;;4.70;;
45033;SDS011;30771;47.988;-4.186;2022-11-20T14:56:57;28.58;;;3.45;;
45033;SDS011;30771;47.988;-4.186;2022-11-20T14:59:25;20.50;;;3.63;;
45033;SDS011;30771;47.988;-4.186;2022-11-20T15:01:56;26.98;;;4.32;;
45033;SDS011;30771;47.988;-4.186;2022-11-20T15:04:26;29.23;;;4.80;;
45033;SDS011;30771;47.988;-4.186;2022-11-20T15:06:53;31.15;;;3.92;;
45033;SDS011;30771;47.988;-4.186;2022-11-20T15:09:21;28.95;;;4.30;;
45033;SDS011;30771;47.988;-4.186;2022-11-20T15:11:57;34.83;;;4.68;;
45033;SDS011;30771;47.988;-4.186;2022-11-20T15:14:25;26.83;;;4.03;;
45033;SDS011;30771;47.988;-4.186;2022-11-20T15:16:52;31.73;;;4.13;;
45033;SDS011;30771;47.988;-4.186;2022-11-20T15:19:24;25.02;;;4.68;;
45033;SDS011;30771;47.988;-4.186;2022-11-20T15:21:50;28.33;;;6.13;;
45033;SDS011;30771;47.988;-4.186;2022-11-20T15:24:16;28.13;;;4.30;;
45033;SDS011;30771;47.988;-4.186;2022-11-20T15:26:41;22.90;;;5.18;;
45033;SDS011;30771;47.988;-4.186;2022-11-20T15:29:11;42.30;;;11.32;;
45033;SDS011;30771;47.988;-4.186;2022-11-20T15:31:38;31.98;;;5.60;;
45033;SDS011;30771;47.988;-4.186;2022-11-20T15:34:05;33.05;;;5.00;;
45033;SDS011;30771;47.988;-4.186;2022-11-20T15:36:32;38.53;;;5.20;;
45033;SDS011;30771;47.988;-4.186;2022-11-20T15:38:58;29.05;;;4.78;;
45033;SDS011;30771;47.988;-4.186;2022-11-20T15:41:27;32.05;;;4.18;;
45033;SDS011;30771;47.988;-4.186;2022-11-20T15:43:55;26.50;;;3.72;;
45033;SDS011;30771;47.988;-4.186;2022-11-20T15:46:24;29.63;;;4.45;;
45033;SDS011;30771;47.988;-4.186;2022-11-20T15:48:55;32.92;;;4.88;;
45033;SDS011;30771;47.988;-4.186;2022-11-20T15:53:56;41.80;;;5.00;;
45033;SDS011;30771;47.988;-4.186;2022-11-20T15:56:22;42.78;;;5.88;;
45033;SDS011;30771;47.988;-4.186;2022-11-20T15:58:48;34.08;;;5.03;;
45033;SDS011;30771;47.988;-4.186;2022-11-20T16:01:18;27.80;;;4.85;;
45033;SDS011;30771;47.988;-4.186;2022-11-20T16:03:45;30.13;;;4.30;;
45033;SDS011;30771;47.988;-4.186;2022-11-20T16:06:10;30.08;;;4.20;;
45033;SDS011;30771;47.988;-4.186;2022-11-20T16:08:38;34.30;;;4.40;;
45033;SDS011;30771;47.988;-4.186;2022-11-20T16:11:04;34.90;;;4.77;;
45033;SDS011;30771;47.988;-4.186;2022-11-20T16:13:30;35.75;;;5.88;;
45033;SDS011;30771;47.988;-4.186;2022-11-20T16:15:58;42.33;;;5.95;;
45033;SDS011;30771;47.988;-4.186;2022-11-20T16:18:26;33.00;;;4.60;;
45033;SDS011;30771;47.988;-4.186;2022-11-20T16:20:52;38.63;;;5.35;;
45033;SDS011;30771;47.988;-4.186;2022-11-20T16:23:19;37.42;;;5.57;;
45033;SDS011;30771;47.988;-4.186;2022-11-20T16:25:45;43.53;;;5.40;;
45033;SDS011;30771;47.988;-4.186;2022-11-20T16:28:11;44.90;;;4.82;;
45033;SDS011;30771;47.988;-4.186;2022-11-20T16:30:37;36.80;;;5.05;;
45033;SDS011;30771;47.988;-4.186;2022-11-20T16:33:03;38.30;;;5.55;;
45033;SDS011;30771;47.988;-4.186;2022-11-20T16:35:29;33.08;;;5.03;;
45033;SDS011;30771;47.988;-4.186;2022-11-20T16:37:56;33.35;;;7.85;;
45033;SDS011;30771;47.988;-4.186;2022-11-20T16:40:22;44.58;;;6.40;;
45033;SDS011;30771;47.988;-4.186;2022-11-20T16:42:49;39.58;;;5.13;;
45033;SDS011;30771;47.988;-4.186;2022-11-20T16:45:14;39.55;;;5.43;;
45033;SDS011;30771;47.988;-4.186;2022-11-20T16:47:39;46.67;;;15.20;;
45033;SDS011;30771;47.988;-4.186;2022-11-20T16:50:06;33.35;;;5.05;;
45033;SDS011;30771;47.988;-4.186;2022-11-20T16:52:32;37.58;;;4.78;;
45033;SDS011;30771;47.988;-4.186;2022-11-20T16:54:58;35.38;;;5.43;;
45033;SDS011;30771;47.988;-4.186;2022-11-20T16:57:23;41.08;;;5.32;;
45033;SDS011;30771;47.988;-4.186;2022-11-20T16:59:49;38.95;;;4.53;;
45033;SDS011;30771;47.988;-4.186;2022-11-20T17:02:14;39.22;;;5.18;;
45033;SDS011;30771;47.988;-4.186;2022-11-20T17:04:40;51.00;;;6.45;;
45033;SDS011;30771;47.988;-4.186;2022-11-20T17:07:06;45.00;;;6.28;;
45033;SDS011;30771;47.988;-4.186;2022-11-20T17:09:31;42.50;;;5.45;;
45033;SDS011;30771;47.988;-4.186;2022-11-20T17:11:57;43.13;;;6.93;;
45033;SDS011;30771;47.988;-4.186;2022-11-20T17:14:22;36.65;;;5.35;;
45033;SDS011;30771;47.988;-4.186;2022-11-20T17:16:48;39.40;;;5.53;;
45033;SDS011;30771;47.988;-4.186;2022-11-20T17:19:13;29.25;;;5.63;;
45033;SDS011;30771;47.988;-4.186;2022-11-20T17:21:39;38.70;;;5.60;;
45033;SDS011;30771;47.988;-4.186;2022-11-20T17:24:06;51.13;;;5.57;;
45033;SDS011;30771;47.988;-4.186;2022-11-20T17:26:33;41.07;;;5.37;;
45033;SDS011;30771;47.988;-4.186;2022-11-20T17:29:02;31.85;;;4.88;;
45033;SDS011;30771;47.988;-4.186;2022-11-20T17:31:29;35.88;;;6.35;;
45033;SDS011;30771;47.988;-4.186;2022-11-20T17:33:56;36.97;;;5.55;;
45033;SDS011;30771;47.988;-4.186;2022-11-20T17:36:22;35.97;;;5.15;;
45033;SDS011;30771;47.988;-4.186;2022-11-20T17:41:20;42.92;;;6.32;;
45033;SDS011;30771;47.988;-4.186;2022-11-20T17:43:52;37.20;;;5.38;;
45033;SDS011;30771;47.988;-4.186;2022-11-20T17:46:20;53.30;;;18.42;;
45033;SDS011;30771;47.988;-4.186;2022-11-20T17:48:48;36.33;;;5.97;;
45033;SDS011;30771;47.988;-4.186;2022-11-20T17:51:14;45.53;;;9.45;;
45033;SDS011;30771;47.988;-4.186;2022-11-20T17:53:46;37.65;;;6.00;;
45033;SDS011;30771;47.988;-4.186;2022-11-20T17:56:15;43.97;;;7.37;;
45033;SDS011;30771;47.988;-4.186;2022-11-20T17:58:43;38.17;;;6.50;;
45033;SDS011;30771;47.988;-4.186;2022-11-20T18:01:17;41.65;;;5.72;;
45033;SDS011;30771;47.988;-4.186;2022-11-20T18:03:46;46.15;;;8.13;;
45033;SDS011;30771;47.988;-4.186;2022-11-20T18:06:13;46.88;;;12.23;;
45033;SDS011;30771;47.988;-4.186;2022-11-20T18:08:43;47.92;;;7.93;;
45033;SDS011;30771;47.988;-4.186;2022-11-20T18:16:53;42.60;;;6.75;;
45033;SDS011;30771;47.988;-4.186;2022-11-20T18:19:21;47.88;;;8.38;;
45033;SDS011;30771;47.988;-4.186;2022-11-20T18:22:07;40.03;;;9.13;;
45033;SDS011;30771;47.988;-4.186;2022-11-20T18:24:36;51.72;;;9.55;;
45033;SDS011;30771;47.988;-4.186;2022-11-20T18:27:02;43.67;;;10.00;;
45033;SDS011;30771;47.988;-4.186;2022-11-20T18:29:31;39.50;;;7.15;;
45033;SDS011;30771;47.988;-4.186;2022-11-20T18:31:57;42.50;;;7.25;;
45033;SDS011;30771;47.988;-4.186;2022-11-20T18:34:23;42.90;;;7.30;;
45033;SDS011;30771;47.988;-4.186;2022-11-20T18:36:49;45.70;;;7.18;;
45033;SDS011;30771;47.988;-4.186;2022-11-20T18:39:14;52.10;;;9.18;;
45033;SDS011;30771;47.988;-4.186;2022-11-20T18:41:42;53.10;;;10.40;;
45033;SDS011;30771;47.988;-4.186;2022-11-20T18:44:11;51.30;;;10.98;;
45033;SDS011;30771;47.988;-4.186;2022-11-20T18:46:38;48.78;;;13.98;;
45033;SDS011;30771;47.988;-4.186;2022-11-20T18:49:04;49.63;;;15.57;;
45033;SDS011;30771;47.988;-4.186;2022-11-20T18:51:29;52.70;;;12.05;;
45033;SDS011;30771;47.988;-4.186;2022-11-20T18:53:54;49.05;;;8.00;;
45033;SDS011;30771;47.988;-4.186;2022-11-20T18:56:19;50.13;;;8.75;;
45033;SDS011;30771;47.988;-4.186;2022-11-20T18:58:45;51.10;;;9.90;;
45033;SDS011;30771;47.988;-4.186;2022-11-20T19:01:10;49.05;;;10.27;;
45033;SDS011;30771;47.988;-4.186;2022-11-20T19:03:36;47.70;;;8.55;;
45033;SDS011;30771;47.988;-4.186;2022-11-20T19:06:01;40.90;;;7.20;;
45033;SDS011;30771;47.988;-4.186;2022-11-20T19:08:26;46.97;;;7.68;;
45033;SDS011;30771;47.988;-4.186;2022-11-20T19:10:52;49.38;;;8.88;;
45033;SDS011;30771;47.988;-4.186;2022-11-20T19:13:18;43.08;;;8.60;;
45033;SDS011;30771;47.988;-4.186;2022-11-20T19:15:43;51.85;;;9.38;;
45033;SDS011;30771;47.988;-4.186;2022-11-20T19:18:08;60.63;;;10.40;;
45033;SDS011;30771;47.988;-4.186;2022-11-20T19:20:33;54.80;;;9.05;;
45033;SDS011;30771;47.988;-4.186;2022-11-20T19:22:59;48.95;;;9.88;;
45033;SDS011;30771;47.988;-4.186;2022-11-20T19:25:27;49.30;;;10.50;;
45033;SDS011;30771;47.988;-4.186;2022-11-20T19:27:55;52.33;;;9.65;;
45033;SDS011;30771;47.988;-4.186;2022-11-20T19:30:23;56.00;;;10.52;;
45033;SDS011;30771;47.988;-4.186;2022-11-20T19:32:51;55.20;;;9.27;;
45033;SDS011;30771;47.988;-4.186;2022-11-20T19:35:16;63.83;;;10.95;;
45033;SDS011;30771;47.988;-4.186;2022-11-20T19:37:42;42.83;;;9.70;;
45033;SDS011;30771;47.988;-4.186;2022-11-20T19:40:10;43.88;;;8.88;;
45033;SDS011;30771;47.988;-4.186;2022-11-20T19:42:35;43.05;;;8.75;;
45033;SDS011;30771;47.988;-4.186;2022-11-20T19:45:01;41.15;;;8.48;;
45033;SDS011;30771;47.988;-4.186;2022-11-20T19:47:26;46.13;;;8.40;;
45033;SDS011;30771;47.988;-4.186;2022-11-20T19:49:51;56.78;;;8.25;;
45033;SDS011;30771;47.988;-4.186;2022-11-20T19:52:17;46.42;;;8.50;;
45033;SDS011;30771;47.988;-4.186;2022-11-20T19:54:42;44.63;;;7.45;;
45033;SDS011;30771;47.988;-4.186;2022-11-20T19:57:07;49.72;;;11.43;;
45033;SDS011;30771;47.988;-4.186;2022-11-20T19:59:33;50.63;;;8.05;;
45033;SDS011;30771;47.988;-4.186;2022-11-20T20:01:58;45.22;;;7.20;;
45033;SDS011;30771;47.988;-4.186;2022-11-20T20:04:23;57.28;;;8.75;;
45033;SDS011;30771;47.988;-4.186;2022-11-20T20:06:49;45.60;;;7.63;;
45033;SDS011;30771;47.988;-4.186;2022-11-20T20:09:14;48.60;;;7.65;;
45033;SDS011;30771;47.988;-4.186;2022-11-20T20:11:43;49.45;;;6.95;;
45033;SDS011;30771;47.988;-4.186;2022-11-20T20:14:09;47.17;;;7.10;;
45033;SDS011;30771;47.988;-4.186;2022-11-20T20:16:37;49.40;;;7.72;;
45033;SDS011;30771;47.988;-4.186;2022-11-20T20:19:04;56.60;;;9.55;;
45033;SDS011;30771;47.988;-4.186;2022-11-20T20:21:30;50.55;;;7.18;;
45033;SDS011;30771;47.988;-4.186;2022-11-20T20:23:57;63.55;;;8.07;;
45033;SDS011;30771;47.988;-4.186;2022-11-20T20:26:24;45.22;;;7.22;;
45033;SDS011;30771;47.988;-4.186;2022-11-20T20:28:50;50.33;;;6.57;;
45033;SDS011;30771;47.988;-4.186;2022-11-20T20:31:16;56.15;;;7.25;;
45033;SDS011;30771;47.988;-4.186;2022-11-20T20:33:44;55.90;;;7.57;;
45033;SDS011;30771;47.988;-4.186;2022-11-20T20:36:10;48.25;;;7.07;;
45033;SDS011;30771;47.988;-4.186;2022-11-20T20:38:39;42.47;;;6.45;;
45033;SDS011;30771;47.988;-4.186;2022-11-20T20:41:04;43.70;;;6.32;;
45033;SDS011;30771;47.988;-4.186;2022-11-20T20:43:30;47.90;;;7.13;;
45033;SDS011;30771;47.988;-4.186;2022-11-20T20:45:56;47.80;;;7.25;;
45033;SDS011;30771;47.988;-4.186;2022-11-20T20:48:22;52.95;;;7.22;;
45033;SDS011;30771;47.988;-4.186;2022-11-20T20:50:55;49.42;;;8.13;;
45033;SDS011;30771;47.988;-4.186;2022-11-20T20:53:29;39.05;;;6.90;;
45033;SDS011;30771;47.988;-4.186;2022-11-20T20:55:58;50.55;;;9.43;;
45033;SDS011;30771;47.988;-4.186;2022-11-20T20:58:25;77.63;;;20.25;;
45033;SDS011;30771;47.988;-4.186;2022-11-20T21:00:52;48.10;;;9.20;;
45033;SDS011;30771;47.988;-4.186;2022-11-20T21:03:18;52.53;;;11.20;;
45033;SDS011;30771;47.988;-4.186;2022-11-20T21:05:43;76.50;;;20.95;;
45033;SDS011;30771;47.988;-4.186;2022-11-20T21:08:09;73.05;;;14.77;;
45033;SDS011;30771;47.988;-4.186;2022-11-20T21:10:35;68.20;;;16.30;;
45033;SDS011;30771;47.988;-4.186;2022-11-20T21:13:00;85.35;;;18.13;;
45033;SDS011;30771;47.988;-4.186;2022-11-20T21:15:26;58.47;;;13.10;;
45033;SDS011;30771;47.988;-4.186;2022-11-20T21:17:51;69.30;;;14.80;;
45033;SDS011;30771;47.988;-4.186;2022-11-20T21:20:16;77.88;;;14.80;;
45033;SDS011;30771;47.988;-4.186;2022-11-20T21:22:42;67.75;;;15.13;;
45033;SDS011;30771;47.988;-4.186;2022-11-20T21:25:07;79.43;;;19.90;;
45033;SDS011;30771;47.988;-4.186;2022-11-20T21:27:32;71.90;;;20.75;;
45033;SDS011;30771;47.988;-4.186;2022-11-20T21:29:57;106.03;;;36.60;;
45033;SDS011;30771;47.988;-4.186;2022-11-20T21:32:23;94.55;;;25.88;;
45033;SDS011;30771;47.988;-4.186;2022-11-20T21:34:48;80.63;;;19.85;;
45033;SDS011;30771;47.988;-4.186;2022-11-20T21:37:14;73.32;;;20.08;;
45033;SDS011;30771;47.988;-4.186;2022-11-20T21:39:39;70.88;;;19.88;;
45033;SDS011;30771;47.988;-4.186;2022-11-20T21:42:04;76.90;;;19.17;;
45033;SDS011;30771;47.988;-4.186;2022-11-20T21:44:30;77.35;;;17.33;;
45033;SDS011;30771;47.988;-4.186;2022-11-20T21:46:55;91.35;;;17.85;;
45033;SDS011;30771;47.988;-4.186;2022-11-20T21:49:20;70.10;;;18.00;;
45033;SDS011;30771;47.988;-4.186;2022-11-20T21:51:46;76.97;;;16.45;;
45033;SDS011;30771;47.988;-4.186;2022-11-20T21:54:11;74.93;;;13.85;;
45033;SDS011;30771;47.988;-4.186;2022-11-20T21:56:36;70.57;;;15.65;;
45033;SDS011;30771;47.988;-4.186;2022-11-20T21:59:03;67.68;;;20.52;;
45033;SDS011;30771;47.988;-4.186;2022-11-20T22:01:28;82.88;;;20.42;;
45033;SDS011;30771;47.988;-4.186;2022-11-20T22:03:58;71.00;;;18.10;;
45033;SDS011;30771;47.988;-4.186;2022-11-20T22:06:26;64.93;;;15.35;;
45033;SDS011;30771;47.988;-4.186;2022-11-20T22:08:54;74.30;;;19.23;;
45033;SDS011;30771;47.988;-4.186;2022-11-20T22:11:20;85.82;;;23.80;;
45033;SDS011;30771;47.988;-4.186;2022-11-20T22:13:46;110.00;;;39.72;;
45033;SDS011;30771;47.988;-4.186;2022-11-20T22:16:12;120.38;;;45.25;;
45033;SDS011;30771;47.988;-4.186;2022-11-20T22:18:44;124.03;;;45.30;;
45033;SDS011;30771;47.988;-4.186;2022-11-20T22:21:13;101.80;;;34.53;;
45033;SDS011;30771;47.988;-4.186;2022-11-20T22:23:40;116.50;;;51.97;;
45033;SDS011;30771;47.988;-4.186;2022-11-20T22:26:09;101.43;;;32.42;;
45033;SDS011;30771;47.988;-4.186;2022-11-20T22:28:37;101.25;;;36.70;;
45033;SDS011;30771;47.988;-4.186;2022-11-20T22:31:03;125.40;;;45.05;;
45033;SDS011;30771;47.988;-4.186;2022-11-20T22:33:30;182.05;;;72.03;;
45033;SDS011;30771;47.988;-4.186;2022-11-20T22:36:06;142.07;;;53.33;;
45033;SDS011;30771;47.988;-4.186;2022-11-20T22:38:33;86.10;;;29.60;;
45033;SDS011;30771;47.988;-4.186;2022-11-20T22:43:32;75.10;;;20.63;;
45033;SDS011;30771;47.988;-4.186;2022-11-20T22:46:07;113.28;;;42.22;;
45033;SDS011;30771;47.988;-4.186;2022-11-20T22:48:35;95.78;;;35.30;;
45033;SDS011;30771;47.988;-4.186;2022-11-20T22:51:03;89.47;;;30.08;;
45033;SDS011;30771;47.988;-4.186;2022-11-20T22:53:30;69.82;;;22.23;;
45033;SDS011;30771;47.988;-4.186;2022-11-20T22:55:55;57.78;;;16.38;;
45033;SDS011;30771;47.988;-4.186;2022-11-20T22:58:21;72.32;;;16.25;;
